sensor_id;sensor_type;location;lat;lon;timestamp;temperature;humidity
13470;DHT22;6807;48.682;9.032;2023-01-23T05:28:03;-0.80;99.90
13470;DHT22;6807;48.682;9.032;2023-01-23T05:30:37;-0.80;99.90
13470;DHT22;6807;48.682;9.032;2023-01-23T05:33:06;-0.30;99.90
13470;DHT22;6807;48.682;9.032;2023-01-23T05:35:33;0.50;99.90
13470;DHT22;6807;48.682;9.032;2023-01-23T05:38:03;-0.80;99.90
13470;DHT22;6807;48.682;9.032;2023-01-23T05:40:33;0.10;99.90
13470;DHT22;6807;48.682;9.032;2023-01-23T05:43:02;-0.80;99.90
13470;DHT22;6807;48.682;9.032;2023-01-23T05:45:34;-0.80;99.90
13470;DHT22;6807;48.682;9.032;2023-01-23T05:48:12;-0.80;99.90
13470;DHT22;6807;48.682;9.032;2023-01-23T05:50:40;-0.80;99.90
13470;DHT22;6807;48.682;9.032;2023-01-23T05:53:11;0.20;99.90
13470;DHT22;6807;48.682;9.032;2023-01-23T05:55:39;0.70;99.90
13470;DHT22;6807;48.682;9.032;2023-01-23T05:58:07;-0.80;99.90
13470;DHT22;6807;48.682;9.032;2023-01-23T06:00:35;-0.80;99.90
13470;DHT22;6807;48.682;9.032;2023-01-23T06:03:04;-0.80;99.90
13470;DHT22;6807;48.682;9.032;2023-01-23T06:05:31;-0.80;99.90
13470;DHT22;6807;48.682;9.032;2023-01-23T06:08:01;0.00;99.90
13470;DHT22;6807;48.682;9.032;2023-01-23T06:10:28;0.50;99.90
13470;DHT22;6807;48.682;9.032;2023-01-23T06:12:55;0.70;99.90
13470;DHT22;6807;48.682;9.032;2023-01-23T06:15:24;1.00;99.90
13470;DHT22;6807;48.682;9.032;2023-01-23T06:17:51;-0.30;99.90
13470;DHT22;6807;48.682;9.032;2023-01-23T06:20:19;-0.40;99.90
13470;DHT22;6807;48.682;9.032;2023-01-23T06:22:46;0.90;99.90
13470;DHT22;6807;48.682;9.032;2023-01-23T06:25:13;-0.80;99.90
13470;DHT22;6807;48.682;9.032;2023-01-23T06:27:40;-0.80;99.90
13470;DHT22;6807;48.682;9.032;2023-01-23T06:30:08;-0.70;99.90
13470;DHT22;6807;48.682;9.032;2023-01-23T06:32:37;-0.80;99.90
13470;DHT22;6807;48.682;9.032;2023-01-23T06:35:07;0.10;99.90
13470;DHT22;6807;48.682;9.032;2023-01-23T06:37:34;-0.70;99.90
13470;DHT22;6807;48.682;9.032;2023-01-23T06:40:02;-0.70;99.90
13470;DHT22;6807;48.682;9.032;2023-01-23T06:42:29;-0.80;99.90
13470;DHT22;6807;48.682;9.032;2023-01-23T06:44:56;-0.10;99.90
13470;DHT22;6807;48.682;9.032;2023-01-23T06:47:29;-0.80;99.90
13470;DHT22;6807;48.682;9.032;2023-01-23T06:49:58;0.00;99.90
13470;DHT22;6807;48.682;9.032;2023-01-23T06:52:28;0.40;99.90
13470;DHT22;6807;48.682;9.032;2023-01-23T06:54:56;0.50;99.90
13470;DHT22;6807;48.682;9.032;2023-01-23T06:57:29;0.70;99.90
13470;DHT22;6807;48.682;9.032;2023-01-23T07:00:04;-0.90;99.90
13470;DHT22;6807;48.682;9.032;2023-01-23T07:02:36;-1.90;99.90
13470;DHT22;6807;48.682;9.032;2023-01-23T07:05:06;0.90;99.90
13470;DHT22;6807;48.682;9.032;2023-01-23T07:07:45;-0.90;99.90
13470;DHT22;6807;48.682;9.032;2023-01-23T07:10:39;-0.30;99.90
13470;DHT22;6807;48.682;9.032;2023-01-23T07:13:08;-0.10;99.90
13470;DHT22;6807;48.682;9.032;2023-01-23T07:15:42;-0.30;99.90
13470;DHT22;6807;48.682;9.032;2023-01-23T07:18:11;-0.50;99.90
13470;DHT22;6807;48.682;9.032;2023-01-23T07:20:43;0.80;99.90
13470;DHT22;6807;48.682;9.032;2023-01-23T07:23:10;-0.80;99.90
13470;DHT22;6807;48.682;9.032;2023-01-23T07:25:37;0.30;99.90
13470;DHT22;6807;48.682;9.032;2023-01-23T07:28:05;0.00;99.90
13470;DHT22;6807;48.682;9.032;2023-01-23T07:30:32;-0.20;99.90
13470;DHT22;6807;48.682;9.032;2023-01-23T07:32:59;0.00;99.90
13470;DHT22;6807;48.682;9.032;2023-01-23T07:35:27;-0.30;99.90
13470;DHT22;6807;48.682;9.032;2023-01-23T07:37:55;0.10;99.90
13470;DHT22;6807;48.682;9.032;2023-01-23T07:40:23;0.10;99.90
13470;DHT22;6807;48.682;9.032;2023-01-23T07:42:49;0.80;99.90
13470;DHT22;6807;48.682;9.032;2023-01-23T07:45:17;0.80;99.90
13470;DHT22;6807;48.682;9.032;2023-01-23T07:47:44;-0.70;99.90
13470;DHT22;6807;48.682;9.032;2023-01-23T07:50:12;-0.30;99.90
13470;DHT22;6807;48.682;9.032;2023-01-23T07:52:43;-0.70;99.90
13470;DHT22;6807;48.682;9.032;2023-01-23T07:55:11;0.60;99.90
13470;DHT22;6807;48.682;9.032;2023-01-23T07:57:39;0.90;99.90
13470;DHT22;6807;48.682;9.032;2023-01-23T08:00:08;-0.50;99.90
13470;DHT22;6807;48.682;9.032;2023-01-23T08:02:36;-0.60;99.90
13470;DHT22;6807;48.682;9.032;2023-01-23T08:05:04;-0.50;99.90
13470;DHT22;6807;48.682;9.032;2023-01-23T08:07:31;-0.50;99.90
13470;DHT22;6807;48.682;9.032;2023-01-23T08:09:58;0.40;99.90
13470;DHT22;6807;48.682;9.032;2023-01-23T08:12:27;0.90;99.90
13470;DHT22;6807;48.682;9.032;2023-01-23T08:14:54;0.50;99.90
13470;DHT22;6807;48.682;9.032;2023-01-23T08:17:21;-0.50;99.90
13470;DHT22;6807;48.682;9.032;2023-01-23T08:19:48;0.30;99.90
13470;DHT22;6807;48.682;9.032;2023-01-23T08:22:15;0.50;99.90
13470;DHT22;6807;48.682;9.032;2023-01-23T08:24:42;-0.50;99.90
13470;DHT22;6807;48.682;9.032;2023-01-23T08:27:09;1.00;99.90
13470;DHT22;6807;48.682;9.032;2023-01-23T08:29:38;0.90;99.90
13470;DHT22;6807;48.682;9.032;2023-01-23T08:32:05;1.10;99.90
13470;DHT22;6807;48.682;9.032;2023-01-23T08:34:32;-0.50;99.90
13470;DHT22;6807;48.682;9.032;2023-01-23T08:36:59;0.80;99.90
13470;DHT22;6807;48.682;9.032;2023-01-23T08:39:26;1.30;99.90
13470;DHT22;6807;48.682;9.032;2023-01-23T08:41:53;-0.30;99.90
13470;DHT22;6807;48.682;9.032;2023-01-23T08:44:20;-0.30;99.90
13470;DHT22;6807;48.682;9.032;2023-01-23T08:46:48;1.20;99.90
13470;DHT22;6807;48.682;9.032;2023-01-23T08:49:15;0.00;99.90
13470;DHT22;6807;48.682;9.032;2023-01-23T08:51:44;1.40;99.90
13470;DHT22;6807;48.682;9.032;2023-01-23T08:54:11;0.90;99.90
13470;DHT22;6807;48.682;9.032;2023-01-23T08:56:38;1.10;99.90
13470;DHT22;6807;48.682;9.032;2023-01-23T08:59:06;0.80;99.90
13470;DHT22;6807;48.682;9.032;2023-01-23T09:01:33;1.20;99.90
13470;DHT22;6807;48.682;9.032;2023-01-23T09:04:02;1.40;99.90
13470;DHT22;6807;48.682;9.032;2023-01-23T09:06:29;0.20;99.90
13470;DHT22;6807;48.682;9.032;2023-01-23T09:08:56;0.70;99.90
13470;DHT22;6807;48.682;9.032;2023-01-23T09:11:23;1.30;99.90
13470;DHT22;6807;48.682;9.032;2023-01-23T09:13:50;0.30;99.90
13470;DHT22;6807;48.682;9.032;2023-01-23T09:16:18;1.10;49.00
13470;DHT22;6807;48.682;9.032;2023-01-23T09:18:45;1.70;64.00
13470;DHT22;6807;48.682;9.032;2023-01-23T09:21:15;-0.90;58.70
13470;DHT22;6807;48.682;9.032;2023-01-23T09:23:44;0.00;79.20
13470;DHT22;6807;48.682;9.032;2023-01-23T09:26:13;0.20;21.70
13470;DHT22;6807;48.682;9.032;2023-01-23T09:28:41;1.80;12.30
13470;DHT22;6807;48.682;9.032;2023-01-23T09:31:10;1.50;1.00
13470;DHT22;6807;48.682;9.032;2023-01-23T09:33:41;1.90;1.00
13470;DHT22;6807;48.682;9.032;2023-01-23T09:36:10;0.50;1.00
13470;DHT22;6807;48.682;9.032;2023-01-23T09:38:39;1.00;1.00
13470;DHT22;6807;48.682;9.032;2023-01-23T09:41:10;1.20;1.00
13470;DHT22;6807;48.682;9.032;2023-01-23T09:43:49;1.90;1.00
13470;DHT22;6807;48.682;9.032;2023-01-23T09:46:20;0.70;1.00
13470;DHT22;6807;48.682;9.032;2023-01-23T09:48:52;1.80;1.00
13470;DHT22;6807;48.682;9.032;2023-01-23T09:51:24;1.20;1.00
13470;DHT22;6807;48.682;9.032;2023-01-23T09:53:57;0.00;1.00
13470;DHT22;6807;48.682;9.032;2023-01-23T09:56:30;0.00;1.00
13470;DHT22;6807;48.682;9.032;2023-01-23T09:59:11;0.40;1.00
13470;DHT22;6807;48.682;9.032;2023-01-23T10:01:39;1.40;1.00
13470;DHT22;6807;48.682;9.032;2023-01-23T10:04:09;0.70;1.00
13470;DHT22;6807;48.682;9.032;2023-01-23T11:43:24;0.80;1.00
13470;DHT22;6807;48.682;9.032;2023-01-23T11:46:12;1.90;1.00
13470;DHT22;6807;48.682;9.032;2023-01-23T11:49:11;0.90;1.00
13470;DHT22;6807;48.682;9.032;2023-01-23T11:51:52;0.70;1.00
13470;DHT22;6807;48.682;9.032;2023-01-23T11:55:04;2.00;1.00
13470;DHT22;6807;48.682;9.032;2023-01-23T11:57:52;0.60;1.00
13470;DHT22;6807;48.682;9.032;2023-01-23T12:00:31;0.50;1.00
13470;DHT22;6807;48.682;9.032;2023-01-23T12:06:38;1.20;1.00
13470;DHT22;6807;48.682;9.032;2023-01-23T12:09:11;0.90;1.00
13470;DHT22;6807;48.682;9.032;2023-01-23T12:11:56;0.60;1.00
13470;DHT22;6807;48.682;9.032;2023-01-23T12:14:31;1.70;1.00
13470;DHT22;6807;48.682;9.032;2023-01-23T12:20:30;0.10;1.00
13470;DHT22;6807;48.682;9.032;2023-01-23T12:23:21;0.70;1.00
13470;DHT22;6807;48.682;9.032;2023-01-23T12:39:14;1.80;1.00
13470;DHT22;6807;48.682;9.032;2023-01-23T12:41:58;1.60;1.00
13470;DHT22;6807;48.682;9.032;2023-01-23T12:44:56;2.10;1.00
13470;DHT22;6807;48.682;9.032;2023-01-23T12:48:11;2.20;1.00
13470;DHT22;6807;48.682;9.032;2023-01-23T12:51:17;2.00;1.00
13470;DHT22;6807;48.682;9.032;2023-01-23T12:53:49;2.00;1.00
13470;DHT22;6807;48.682;9.032;2023-01-23T12:56:26;2.20;1.00
13470;DHT22;6807;48.682;9.032;2023-01-23T12:59:08;3.80;1.00
13470;DHT22;6807;48.682;9.032;2023-01-23T13:02:08;2.60;1.00
13470;DHT22;6807;48.682;9.032;2023-01-23T13:08:18;2.20;1.00
13470;DHT22;6807;48.682;9.032;2023-01-23T13:17:47;0.40;1.00
13470;DHT22;6807;48.682;9.032;2023-01-23T13:20:33;2.20;1.00
13470;DHT22;6807;48.682;9.032;2023-01-23T13:31:07;1.50;1.00
13470;DHT22;6807;48.682;9.032;2023-01-23T13:34:33;1.60;1.00
13470;DHT22;6807;48.682;9.032;2023-01-23T13:37:31;1.20;1.00
13470;DHT22;6807;48.682;9.032;2023-01-23T13:40:12;1.30;1.00
13470;DHT22;6807;48.682;9.032;2023-01-23T13:42:39;2.00;1.00
13470;DHT22;6807;48.682;9.032;2023-01-23T13:45:37;1.50;1.00
13470;DHT22;6807;48.682;9.032;2023-01-23T13:51:25;1.40;1.00
13470;DHT22;6807;48.682;9.032;2023-01-23T13:53:53;1.20;1.00
13470;DHT22;6807;48.682;9.032;2023-01-23T13:56:39;1.30;1.00
13470;DHT22;6807;48.682;9.032;2023-01-23T13:59:12;1.50;1.00
13470;DHT22;6807;48.682;9.032;2023-01-23T14:01:45;1.70;1.00
13470;DHT22;6807;48.682;9.032;2023-01-23T14:04:33;1.70;1.00
13470;DHT22;6807;48.682;9.032;2023-01-23T14:07:28;1.40;1.00
13470;DHT22;6807;48.682;9.032;2023-01-23T14:10:23;1.60;1.00
13470;DHT22;6807;48.682;9.032;2023-01-23T14:13:02;1.40;1.00
13470;DHT22;6807;48.682;9.032;2023-01-23T14:15:30;1.30;1.00
13470;DHT22;6807;48.682;9.032;2023-01-23T14:18:19;1.60;1.00
13470;DHT22;6807;48.682;9.032;2023-01-23T14:20:48;1.40;1.00
13470;DHT22;6807;48.682;9.032;2023-01-23T14:23:26;1.40;1.00
13470;DHT22;6807;48.682;9.032;2023-01-23T14:25:53;1.30;1.00
13470;DHT22;6807;48.682;9.032;2023-01-23T14:28:20;1.80;1.00
13470;DHT22;6807;48.682;9.032;2023-01-23T14:30:56;2.00;1.00
13470;DHT22;6807;48.682;9.032;2023-01-23T14:33:24;0.20;1.00
13470;DHT22;6807;48.682;9.032;2023-01-23T14:35:52;1.50;1.00
13470;DHT22;6807;48.682;9.032;2023-01-23T14:38:29;2.30;1.00
13470;DHT22;6807;48.682;9.032;2023-01-23T14:40:57;1.20;1.00
13470;DHT22;6807;48.682;9.032;2023-01-23T14:43:26;1.60;1.00
13470;DHT22;6807;48.682;9.032;2023-01-23T14:46:02;1.20;1.00
13470;DHT22;6807;48.682;9.032;2023-01-23T14:48:34;1.10;1.00
13470;DHT22;6807;48.682;9.032;2023-01-23T14:51:09;1.10;1.00
13470;DHT22;6807;48.682;9.032;2023-01-23T14:53:42;1.10;1.00
13470;DHT22;6807;48.682;9.032;2023-01-23T14:56:10;1.50;1.00
13470;DHT22;6807;48.682;9.032;2023-01-23T14:58:37;1.00;1.00
13470;DHT22;6807;48.682;9.032;2023-01-23T15:01:05;1.40;1.00
13470;DHT22;6807;48.682;9.032;2023-01-23T15:03:37;1.10;1.00
13470;DHT22;6807;48.682;9.032;2023-01-23T15:06:08;1.00;1.00
13470;DHT22;6807;48.682;9.032;2023-01-23T15:08:36;0.90;1.00
13470;DHT22;6807;48.682;9.032;2023-01-23T15:11:07;2.30;1.00
13470;DHT22;6807;48.682;9.032;2023-01-23T15:13:46;1.30;1.00
13470;DHT22;6807;48.682;9.032;2023-01-23T15:16:22;1.60;1.00
13470;DHT22;6807;48.682;9.032;2023-01-23T15:18:59;1.00;1.00
13470;DHT22;6807;48.682;9.032;2023-01-23T15:21:36;0.90;1.00
13470;DHT22;6807;48.682;9.032;2023-01-23T15:24:15;0.80;1.00
13470;DHT22;6807;48.682;9.032;2023-01-23T15:26:59;0.80;1.00
13470;DHT22;6807;48.682;9.032;2023-01-23T15:29:29;2.10;1.00
13470;DHT22;6807;48.682;9.032;2023-01-23T15:31:57;0.80;19.30
13470;DHT22;6807;48.682;9.032;2023-01-23T15:34:28;0.80;22.30
13470;DHT22;6807;48.682;9.032;2023-01-23T15:37:03;1.90;23.40
13470;DHT22;6807;48.682;9.032;2023-01-23T15:39:37;0.80;2.70
13470;DHT22;6807;48.682;9.032;2023-01-23T15:42:27;0.80;15.00
13470;DHT22;6807;48.682;9.032;2023-01-23T15:44:56;0.80;23.40
13470;DHT22;6807;48.682;9.032;2023-01-23T15:47:27;0.90;9.90
13470;DHT22;6807;48.682;9.032;2023-01-23T15:49:54;0.80;22.60
13470;DHT22;6807;48.682;9.032;2023-01-23T15:55:17;0.70;58.70
13470;DHT22;6807;48.682;9.032;2023-01-23T15:57:46;1.00;63.60
13470;DHT22;6807;48.682;9.032;2023-01-23T16:00:17;0.80;49.10
13470;DHT22;6807;48.682;9.032;2023-01-23T16:02:45;0.80;57.30
13470;DHT22;6807;48.682;9.032;2023-01-23T16:05:12;0.70;49.30
13470;DHT22;6807;48.682;9.032;2023-01-23T16:07:42;0.70;75.70
13470;DHT22;6807;48.682;9.032;2023-01-23T16:10:19;1.20;50.70
13470;DHT22;6807;48.682;9.032;2023-01-23T16:13:04;0.60;62.20
13470;DHT22;6807;48.682;9.032;2023-01-23T16:15:47;1.20;85.20
13470;DHT22;6807;48.682;9.032;2023-01-23T16:18:16;1.50;99.80
13470;DHT22;6807;48.682;9.032;2023-01-23T16:20:56;1.70;77.80
13470;DHT22;6807;48.682;9.032;2023-01-23T16:23:23;0.70;93.70
13470;DHT22;6807;48.682;9.032;2023-01-23T16:25:50;1.30;99.90
13470;DHT22;6807;48.682;9.032;2023-01-23T16:28:21;0.60;99.90
13470;DHT22;6807;48.682;9.032;2023-01-23T16:30:49;1.80;98.40
13470;DHT22;6807;48.682;9.032;2023-01-23T16:33:26;1.00;90.20
13470;DHT22;6807;48.682;9.032;2023-01-23T16:35:54;0.60;99.90
13470;DHT22;6807;48.682;9.032;2023-01-23T16:38:29;1.70;99.90
13470;DHT22;6807;48.682;9.032;2023-01-23T16:41:01;1.40;99.90
13470;DHT22;6807;48.682;9.032;2023-01-23T16:43:30;1.40;99.90
13470;DHT22;6807;48.682;9.032;2023-01-23T16:45:58;0.60;99.90
13470;DHT22;6807;48.682;9.032;2023-01-23T16:48:26;0.60;99.90
13470;DHT22;6807;48.682;9.032;2023-01-23T16:51:10;1.70;99.90
13470;DHT22;6807;48.682;9.032;2023-01-23T16:53:40;1.90;99.90
13470;DHT22;6807;48.682;9.032;2023-01-23T16:56:16;1.60;99.90
13470;DHT22;6807;48.682;9.032;2023-01-23T16:58:53;1.90;99.90
13470;DHT22;6807;48.682;9.032;2023-01-23T17:01:22;1.00;99.90
13470;DHT22;6807;48.682;9.032;2023-01-23T17:03:55;2.00;99.90
13470;DHT22;6807;48.682;9.032;2023-01-23T17:06:23;0.60;99.90
13470;DHT22;6807;48.682;9.032;2023-01-23T17:08:50;0.60;99.90
13470;DHT22;6807;48.682;9.032;2023-01-23T17:11:21;1.90;99.90
13470;DHT22;6807;48.682;9.032;2023-01-23T17:14:14;0.60;99.90
13470;DHT22;6807;48.682;9.032;2023-01-23T17:16:49;0.70;99.90
13470;DHT22;6807;48.682;9.032;2023-01-23T17:19:35;1.40;99.90
13470;DHT22;6807;48.682;9.032;2023-01-23T17:22:04;0.70;99.90
13470;DHT22;6807;48.682;9.032;2023-01-23T17:24:37;1.80;99.90
13470;DHT22;6807;48.682;9.032;2023-01-23T17:27:19;1.00;99.90
13470;DHT22;6807;48.682;9.032;2023-01-23T17:29:57;1.10;99.90
13470;DHT22;6807;48.682;9.032;2023-01-23T17:32:29;1.80;99.90
13470;DHT22;6807;48.682;9.032;2023-01-23T17:34:57;0.60;99.90
13470;DHT22;6807;48.682;9.032;2023-01-23T17:37:42;1.70;99.90
13470;DHT22;6807;48.682;9.032;2023-01-23T17:40:14;0.60;99.90
13470;DHT22;6807;48.682;9.032;2023-01-23T17:46:26;1.10;99.90
13470;DHT22;6807;48.682;9.032;2023-01-23T17:52:23;1.70;99.90
13470;DHT22;6807;48.682;9.032;2023-01-23T17:55:26;0.60;99.90
13470;DHT22;6807;48.682;9.032;2023-01-23T18:01:57;0.50;99.90
13470;DHT22;6807;48.682;9.032;2023-01-23T18:04:53;0.60;99.90
13470;DHT22;6807;48.682;9.032;2023-01-23T18:11:45;0.50;99.90
13470;DHT22;6807;48.682;9.032;2023-01-23T18:14:41;0.50;99.90
13470;DHT22;6807;48.682;9.032;2023-01-23T18:17:24;1.90;99.90
13470;DHT22;6807;48.682;9.032;2023-01-23T18:20:06;0.50;99.90
13470;DHT22;6807;48.682;9.032;2023-01-23T18:25:31;0.60;99.90
13470;DHT22;6807;48.682;9.032;2023-01-23T18:28:27;0.50;99.90
13470;DHT22;6807;48.682;9.032;2023-01-23T18:31:30;0.00;99.90
13470;DHT22;6807;48.682;9.032;2023-01-23T18:34:16;0.60;99.90
13470;DHT22;6807;48.682;9.032;2023-01-23T18:37:03;0.60;99.90
13470;DHT22;6807;48.682;9.032;2023-01-23T18:42:32;0.50;99.90
13470;DHT22;6807;48.682;9.032;2023-01-23T18:45:11;0.60;99.90
13470;DHT22;6807;48.682;9.032;2023-01-23T18:47:43;0.50;99.90
13470;DHT22;6807;48.682;9.032;2023-01-23T18:53:06;0.60;99.90
13470;DHT22;6807;48.682;9.032;2023-01-23T18:55:46;0.60;99.90
13470;DHT22;6807;48.682;9.032;2023-01-23T18:58:27;1.40;99.90
13470;DHT22;6807;48.682;9.032;2023-01-23T19:01:00;1.40;99.90
13470;DHT22;6807;48.682;9.032;2023-01-23T19:03:37;1.40;99.90
13470;DHT22;6807;48.682;9.032;2023-01-23T19:06:17;1.90;99.90
13470;DHT22;6807;48.682;9.032;2023-01-23T19:08:44;0.60;99.90
13470;DHT22;6807;48.682;9.032;2023-01-23T19:11:22;0.60;99.90
13470;DHT22;6807;48.682;9.032;2023-01-23T19:14:00;1.50;99.90
13470;DHT22;6807;48.682;9.032;2023-01-23T19:16:32;1.70;99.90
13470;DHT22;6807;48.682;9.032;2023-01-23T19:19:11;0.50;99.90
13470;DHT22;6807;48.682;9.032;2023-01-23T19:21:45;0.50;99.90
13470;DHT22;6807;48.682;9.032;2023-01-23T19:24:17;0.50;99.90
13470;DHT22;6807;48.682;9.032;2023-01-23T19:27:09;0.50;99.90
13470;DHT22;6807;48.682;9.032;2023-01-23T19:30:03;2.00;99.90
13470;DHT22;6807;48.682;9.032;2023-01-23T19:32:38;0.70;99.90
13470;DHT22;6807;48.682;9.032;2023-01-23T19:35:06;0.20;99.90
13470;DHT22;6807;48.682;9.032;2023-01-23T19:37:34;0.60;99.90
13470;DHT22;6807;48.682;9.032;2023-01-23T19:40:06;0.60;99.90
13470;DHT22;6807;48.682;9.032;2023-01-23T19:42:36;0.60;99.90
13470;DHT22;6807;48.682;9.032;2023-01-23T19:45:10;1.30;99.90
13470;DHT22;6807;48.682;9.032;2023-01-23T19:48:03;0.60;99.90
13470;DHT22;6807;48.682;9.032;2023-01-23T19:50:40;0.70;99.90
13470;DHT22;6807;48.682;9.032;2023-01-23T19:53:15;1.90;99.90
13470;DHT22;6807;48.682;9.032;2023-01-23T19:55:43;2.30;99.90
13470;DHT22;6807;48.682;9.032;2023-01-23T19:58:11;0.70;99.90
13470;DHT22;6807;48.682;9.032;2023-01-23T20:00:39;0.70;99.90
13470;DHT22;6807;48.682;9.032;2023-01-23T20:03:07;1.40;99.90
13470;DHT22;6807;48.682;9.032;2023-01-23T20:05:35;1.00;99.90
13470;DHT22;6807;48.682;9.032;2023-01-23T20:08:02;1.00;99.90
13470;DHT22;6807;48.682;9.032;2023-01-23T20:10:31;0.80;99.90
13470;DHT22;6807;48.682;9.032;2023-01-23T20:12:58;1.30;99.90
13470;DHT22;6807;48.682;9.032;2023-01-23T20:15:27;1.40;99.90
13470;DHT22;6807;48.682;9.032;2023-01-23T20:17:55;0.80;99.90
13470;DHT22;6807;48.682;9.032;2023-01-23T20:20:22;1.60;99.90
13470;DHT22;6807;48.682;9.032;2023-01-23T20:22:50;2.20;99.90
13470;DHT22;6807;48.682;9.032;2023-01-23T20:25:20;0.80;99.90
13470;DHT22;6807;48.682;9.032;2023-01-23T20:27:49;0.90;99.90
13470;DHT22;6807;48.682;9.032;2023-01-23T20:30:18;2.10;99.90
13470;DHT22;6807;48.682;9.032;2023-01-23T20:32:46;0.80;99.90
13470;DHT22;6807;48.682;9.032;2023-01-23T20:35:13;1.50;99.90
13470;DHT22;6807;48.682;9.032;2023-01-23T20:37:41;0.80;99.90
13470;DHT22;6807;48.682;9.032;2023-01-23T20:40:09;1.20;99.90
13470;DHT22;6807;48.682;9.032;2023-01-23T20:42:37;0.80;99.90
13470;DHT22;6807;48.682;9.032;2023-01-23T20:45:07;1.50;99.90
13470;DHT22;6807;48.682;9.032;2023-01-23T20:47:36;0.80;99.90
13470;DHT22;6807;48.682;9.032;2023-01-23T20:50:04;0.80;99.90
13470;DHT22;6807;48.682;9.032;2023-01-23T20:52:31;0.80;99.90
13470;DHT22;6807;48.682;9.032;2023-01-23T20:55:15;1.40;99.90
13470;DHT22;6807;48.682;9.032;2023-01-23T20:57:43;0.90;99.90
13470;DHT22;6807;48.682;9.032;2023-01-23T21:00:29;0.90;99.90
13470;DHT22;6807;48.682;9.032;2023-01-23T21:02:57;0.90;99.90
13470;DHT22;6807;48.682;9.032;2023-01-23T21:05:24;1.40;99.90
13470;DHT22;6807;48.682;9.032;2023-01-23T21:07:51;0.80;99.90
13470;DHT22;6807;48.682;9.032;2023-01-23T21:10:18;1.50;99.90
13470;DHT22;6807;48.682;9.032;2023-01-23T21:12:45;0.80;99.90
13470;DHT22;6807;48.682;9.032;2023-01-23T21:15:13;2.10;99.90
13470;DHT22;6807;48.682;9.032;2023-01-23T21:17:42;0.80;99.90
13470;DHT22;6807;48.682;9.032;2023-01-23T21:20:10;0.80;99.90
13470;DHT22;6807;48.682;9.032;2023-01-23T21:22:37;0.90;99.90
13470;DHT22;6807;48.682;9.032;2023-01-23T21:25:05;1.40;99.90
13470;DHT22;6807;48.682;9.032;2023-01-23T21:27:32;0.90;99.90
13470;DHT22;6807;48.682;9.032;2023-01-23T21:29:59;0.90;99.90
13470;DHT22;6807;48.682;9.032;2023-01-23T21:32:28;0.90;99.90
13470;DHT22;6807;48.682;9.032;2023-01-23T21:34:56;0.90;99.90
13470;DHT22;6807;48.682;9.032;2023-01-23T21:37:23;0.90;99.90
13470;DHT22;6807;48.682;9.032;2023-01-23T21:39:50;0.90;99.90
13470;DHT22;6807;48.682;9.032;2023-01-23T21:42:17;1.40;99.90
13470;DHT22;6807;48.682;9.032;2023-01-23T21:44:44;0.90;99.90
13470;DHT22;6807;48.682;9.032;2023-01-23T21:47:13;1.00;99.90
13470;DHT22;6807;48.682;9.032;2023-01-23T21:49:40;1.70;99.90
13470;DHT22;6807;48.682;9.032;2023-01-23T21:52:08;0.90;99.90
13470;DHT22;6807;48.682;9.032;2023-01-23T21:54:35;2.20;99.90
13470;DHT22;6807;48.682;9.032;2023-01-23T21:57:03;2.00;99.90
13470;DHT22;6807;48.682;9.032;2023-01-23T21:59:32;2.20;99.90
13470;DHT22;6807;48.682;9.032;2023-01-23T22:01:59;1.00;99.90
13470;DHT22;6807;48.682;9.032;2023-01-23T22:04:27;1.30;99.90
13470;DHT22;6807;48.682;9.032;2023-01-23T22:06:55;1.00;99.90
13470;DHT22;6807;48.682;9.032;2023-01-23T22:09:24;1.20;99.90
13470;DHT22;6807;48.682;9.032;2023-01-23T22:11:52;1.00;99.90
13470;DHT22;6807;48.682;9.032;2023-01-23T22:14:20;1.00;99.90
13470;DHT22;6807;48.682;9.032;2023-01-23T22:16:47;2.20;99.90
13470;DHT22;6807;48.682;9.032;2023-01-23T22:19:15;1.60;99.90
13470;DHT22;6807;48.682;9.032;2023-01-23T22:21:42;1.00;99.90
13470;DHT22;6807;48.682;9.032;2023-01-23T22:24:10;1.60;99.90
13470;DHT22;6807;48.682;9.032;2023-01-23T22:26:47;1.00;99.90
13470;DHT22;6807;48.682;9.032;2023-01-23T22:29:14;1.00;99.90
13470;DHT22;6807;48.682;9.032;2023-01-23T22:31:41;1.00;99.90
13470;DHT22;6807;48.682;9.032;2023-01-23T22:34:08;1.10;99.90
13470;DHT22;6807;48.682;9.032;2023-01-23T22:36:35;1.00;99.90
13470;DHT22;6807;48.682;9.032;2023-01-23T22:39:02;1.30;99.90
13470;DHT22;6807;48.682;9.032;2023-01-23T22:41:29;1.00;99.90
13470;DHT22;6807;48.682;9.032;2023-01-23T22:43:58;1.00;99.90
13470;DHT22;6807;48.682;9.032;2023-01-23T22:46:25;1.80;99.90
13470;DHT22;6807;48.682;9.032;2023-01-23T22:48:52;1.80;99.90
13470;DHT22;6807;48.682;9.032;2023-01-23T22:51:21;1.00;99.90
13470;DHT22;6807;48.682;9.032;2023-01-23T22:53:48;1.00;99.90
13470;DHT22;6807;48.682;9.032;2023-01-23T22:56:15;1.50;99.90
13470;DHT22;6807;48.682;9.032;2023-01-23T22:58:44;1.00;99.90
13470;DHT22;6807;48.682;9.032;2023-01-23T23:01:12;1.00;99.90
13470;DHT22;6807;48.682;9.032;2023-01-23T23:03:39;1.30;99.90
13470;DHT22;6807;48.682;9.032;2023-01-23T23:06:09;1.40;99.90
13470;DHT22;6807;48.682;9.032;2023-01-23T23:08:36;1.00;99.90
13470;DHT22;6807;48.682;9.032;2023-01-23T23:11:05;1.40;99.90
13470;DHT22;6807;48.682;9.032;2023-01-23T23:13:35;1.00;99.90
13470;DHT22;6807;48.682;9.032;2023-01-23T23:16:03;1.00;99.90
13470;DHT22;6807;48.682;9.032;2023-01-23T23:18:32;1.00;99.90
13470;DHT22;6807;48.682;9.032;2023-01-23T23:20:59;2.20;99.90
13470;DHT22;6807;48.682;9.032;2023-01-23T23:23:26;1.30;99.90
13470;DHT22;6807;48.682;9.032;2023-01-23T23:25:54;1.40;99.90
13470;DHT22;6807;48.682;9.032;2023-01-23T23:28:22;1.90;99.90
13470;DHT22;6807;48.682;9.032;2023-01-23T23:30:50;1.10;99.90
13470;DHT22;6807;48.682;9.032;2023-01-23T23:33:18;1.00;99.90
13470;DHT22;6807;48.682;9.032;2023-01-23T23:35:46;1.00;99.90
13470;DHT22;6807;48.682;9.032;2023-01-23T23:38:14;1.30;99.90
13470;DHT22;6807;48.682;9.032;2023-01-23T23:40:41;1.00;99.90
13470;DHT22;6807;48.682;9.032;2023-01-23T23:43:08;1.00;99.90
13470;DHT22;6807;48.682;9.032;2023-01-23T23:45:35;1.00;99.90
13470;DHT22;6807;48.682;9.032;2023-01-23T23:48:02;1.20;99.90
13470;DHT22;6807;48.682;9.032;2023-01-23T23:50:31;1.00;99.90
13470;DHT22;6807;48.682;9.032;2023-01-23T23:52:59;1.00;99.90
13470;DHT22;6807;48.682;9.032;2023-01-23T23:55:26;1.30;99.90
13470;DHT22;6807;48.682;9.032;2023-01-23T23:57:53;1.00;99.90
